sensor_id;sensor_type;location;lat;lon;timestamp;P1;durP1;ratioP1;P2;durP2;ratioP2
52776;SDS011;38656;54.260;20.822;2023-07-31T00:00:41;9.48;;;5.28;;
52776;SDS011;38656;54.260;20.822;2023-07-31T00:03:07;5.90;;;5.05;;
52776;SDS011;38656;54.260;20.822;2023-07-31T00:05:33;12.23;;;5.20;;
52776;SDS011;38656;54.260;20.822;2023-07-31T00:07:59;11.73;;;5.82;;
52776;SDS011;38656;54.260;20.822;2023-07-31T00:10:25;10.10;;;5.38;;
52776;SDS011;38656;54.260;20.822;2023-07-31T00:12:51;6.63;;;5.82;;
52776;SDS011;38656;54.260;20.822;2023-07-31T00:15:17;7.30;;;5.20;;
52776;SDS011;38656;54.260;20.822;2023-07-31T00:17:43;11.68;;;6.75;;
52776;SDS011;38656;54.260;20.822;2023-07-31T00:20:09;10.32;;;5.32;;
52776;SDS011;38656;54.260;20.822;2023-07-31T00:22:35;6.57;;;5.10;;
52776;SDS011;38656;54.260;20.822;2023-07-31T00:25:01;7.95;;;4.88;;
52776;SDS011;38656;54.260;20.822;2023-07-31T00:27:27;7.18;;;5.30;;
52776;SDS011;38656;54.260;20.822;2023-07-31T00:29:53;12.45;;;5.20;;
52776;SDS011;38656;54.260;20.822;2023-07-31T00:32:19;8.65;;;5.13;;
52776;SDS011;38656;54.260;20.822;2023-07-31T00:34:46;10.52;;;4.93;;
52776;SDS011;38656;54.260;20.822;2023-07-31T00:37:12;6.15;;;5.03;;
52776;SDS011;38656;54.260;20.822;2023-07-31T00:39:38;9.88;;;4.50;;
52776;SDS011;38656;54.260;20.822;2023-07-31T00:42:04;6.63;;;4.80;;
52776;SDS011;38656;54.260;20.822;2023-07-31T00:44:30;6.22;;;4.97;;
52776;SDS011;38656;54.260;20.822;2023-07-31T00:46:56;11.15;;;5.22;;
52776;SDS011;38656;54.260;20.822;2023-07-31T00:49:24;7.28;;;5.57;;
52776;SDS011;38656;54.260;20.822;2023-07-31T00:51:50;10.43;;;7.40;;
52776;SDS011;38656;54.260;20.822;2023-07-31T00:54:16;7.20;;;4.60;;
52776;SDS011;38656;54.260;20.822;2023-07-31T00:56:44;7.45;;;5.38;;
52776;SDS011;38656;54.260;20.822;2023-07-31T00:59:10;6.18;;;4.93;;
52776;SDS011;38656;54.260;20.822;2023-07-31T01:01:37;6.10;;;4.30;;
52776;SDS011;38656;54.260;20.822;2023-07-31T01:04:03;8.70;;;5.07;;
52776;SDS011;38656;54.260;20.822;2023-07-31T01:06:37;6.80;;;5.22;;
52776;SDS011;38656;54.260;20.822;2023-07-31T01:09:07;8.65;;;5.57;;
52776;SDS011;38656;54.260;20.822;2023-07-31T01:11:46;10.75;;;7.13;;
52776;SDS011;38656;54.260;20.822;2023-07-31T01:14:13;14.77;;;6.63;;
52776;SDS011;38656;54.260;20.822;2023-07-31T01:16:39;12.23;;;7.07;;
52776;SDS011;38656;54.260;20.822;2023-07-31T01:19:06;10.07;;;6.43;;
52776;SDS011;38656;54.260;20.822;2023-07-31T01:26:49;13.48;;;6.53;;
52776;SDS011;38656;54.260;20.822;2023-07-31T01:32:01;10.65;;;5.72;;
52776;SDS011;38656;54.260;20.822;2023-07-31T01:34:28;5.85;;;5.35;;
52776;SDS011;38656;54.260;20.822;2023-07-31T01:36:55;8.00;;;5.55;;
52776;SDS011;38656;54.260;20.822;2023-07-31T01:39:23;8.25;;;5.18;;
52776;SDS011;38656;54.260;20.822;2023-07-31T01:41:49;7.97;;;4.97;;
52776;SDS011;38656;54.260;20.822;2023-07-31T01:44:15;6.32;;;5.18;;
52776;SDS011;38656;54.260;20.822;2023-07-31T01:46:41;8.27;;;5.75;;
52776;SDS011;38656;54.260;20.822;2023-07-31T01:49:07;8.07;;;5.07;;
52776;SDS011;38656;54.260;20.822;2023-07-31T01:51:33;20.02;;;6.07;;
52776;SDS011;38656;54.260;20.822;2023-07-31T01:54:00;9.88;;;5.35;;
52776;SDS011;38656;54.260;20.822;2023-07-31T01:56:26;8.93;;;6.55;;
52776;SDS011;38656;54.260;20.822;2023-07-31T01:58:52;10.95;;;9.00;;
52776;SDS011;38656;54.260;20.822;2023-07-31T02:01:18;8.77;;;7.60;;
52776;SDS011;38656;54.260;20.822;2023-07-31T02:03:44;14.15;;;9.90;;
52776;SDS011;38656;54.260;20.822;2023-07-31T02:06:10;15.57;;;9.07;;
52776;SDS011;38656;54.260;20.822;2023-07-31T02:08:36;8.35;;;6.07;;
52776;SDS011;38656;54.260;20.822;2023-07-31T02:11:02;10.40;;;6.50;;
52776;SDS011;38656;54.260;20.822;2023-07-31T02:13:28;24.27;;;6.97;;
52776;SDS011;38656;54.260;20.822;2023-07-31T02:15:54;6.53;;;5.72;;
52776;SDS011;38656;54.260;20.822;2023-07-31T02:18:20;8.32;;;5.00;;
52776;SDS011;38656;54.260;20.822;2023-07-31T02:20:50;8.07;;;4.82;;
52776;SDS011;38656;54.260;20.822;2023-07-31T02:23:17;4.90;;;3.65;;
52776;SDS011;38656;54.260;20.822;2023-07-31T02:25:43;5.07;;;3.13;;
52776;SDS011;38656;54.260;20.822;2023-07-31T02:28:09;3.20;;;2.90;;
52776;SDS011;38656;54.260;20.822;2023-07-31T02:30:35;4.80;;;3.90;;
52776;SDS011;38656;54.260;20.822;2023-07-31T02:33:01;4.28;;;3.88;;
52776;SDS011;38656;54.260;20.822;2023-07-31T02:35:27;4.53;;;3.83;;
52776;SDS011;38656;54.260;20.822;2023-07-31T02:37:55;8.35;;;4.85;;
52776;SDS011;38656;54.260;20.822;2023-07-31T02:40:21;4.70;;;4.35;;
52776;SDS011;38656;54.260;20.822;2023-07-31T02:42:47;4.60;;;4.10;;
52776;SDS011;38656;54.260;20.822;2023-07-31T02:45:13;5.78;;;3.80;;
52776;SDS011;38656;54.260;20.822;2023-07-31T02:47:39;6.75;;;4.03;;
52776;SDS011;38656;54.260;20.822;2023-07-31T02:50:05;9.05;;;4.00;;
52776;SDS011;38656;54.260;20.822;2023-07-31T02:52:31;8.15;;;4.85;;
52776;SDS011;38656;54.260;20.822;2023-07-31T02:54:57;6.30;;;5.22;;
52776;SDS011;38656;54.260;20.822;2023-07-31T02:57:24;14.00;;;10.18;;
52776;SDS011;38656;54.260;20.822;2023-07-31T02:59:50;15.32;;;9.38;;
52776;SDS011;38656;54.260;20.822;2023-07-31T03:02:16;16.90;;;10.00;;
52776;SDS011;38656;54.260;20.822;2023-07-31T03:04:42;11.48;;;8.55;;
52776;SDS011;38656;54.260;20.822;2023-07-31T03:07:08;11.70;;;7.18;;
52776;SDS011;38656;54.260;20.822;2023-07-31T03:09:34;13.75;;;6.70;;
52776;SDS011;38656;54.260;20.822;2023-07-31T03:12:00;9.57;;;7.10;;
52776;SDS011;38656;54.260;20.822;2023-07-31T03:14:26;10.35;;;7.03;;
52776;SDS011;38656;54.260;20.822;2023-07-31T03:16:52;8.23;;;5.22;;
52776;SDS011;38656;54.260;20.822;2023-07-31T03:19:18;10.80;;;6.32;;
52776;SDS011;38656;54.260;20.822;2023-07-31T03:21:44;9.82;;;6.35;;
52776;SDS011;38656;54.260;20.822;2023-07-31T03:24:10;9.02;;;6.13;;
52776;SDS011;38656;54.260;20.822;2023-07-31T03:26:37;11.02;;;6.43;;
52776;SDS011;38656;54.260;20.822;2023-07-31T03:29:06;9.65;;;7.80;;
52776;SDS011;38656;54.260;20.822;2023-07-31T03:31:32;14.30;;;6.82;;
52776;SDS011;38656;54.260;20.822;2023-07-31T03:33:58;9.35;;;6.88;;
52776;SDS011;38656;54.260;20.822;2023-07-31T03:36:24;9.65;;;6.82;;
52776;SDS011;38656;54.260;20.822;2023-07-31T03:38:51;7.63;;;6.82;;
52776;SDS011;38656;54.260;20.822;2023-07-31T03:41:17;7.30;;;5.00;;
52776;SDS011;38656;54.260;20.822;2023-07-31T03:43:43;5.25;;;4.45;;
52776;SDS011;38656;54.260;20.822;2023-07-31T03:46:09;7.45;;;4.35;;
52776;SDS011;38656;54.260;20.822;2023-07-31T03:48:36;6.38;;;4.07;;
52776;SDS011;38656;54.260;20.822;2023-07-31T03:51:02;9.18;;;5.63;;
52776;SDS011;38656;54.260;20.822;2023-07-31T03:53:28;8.82;;;5.22;;
52776;SDS011;38656;54.260;20.822;2023-07-31T03:55:54;12.95;;;7.40;;
52776;SDS011;38656;54.260;20.822;2023-07-31T03:58:20;6.13;;;5.32;;
52776;SDS011;38656;54.260;20.822;2023-07-31T04:00:46;7.35;;;5.55;;
52776;SDS011;38656;54.260;20.822;2023-07-31T04:03:12;9.68;;;5.38;;
52776;SDS011;38656;54.260;20.822;2023-07-31T04:05:38;5.70;;;5.10;;
52776;SDS011;38656;54.260;20.822;2023-07-31T04:08:05;7.72;;;4.38;;
52776;SDS011;38656;54.260;20.822;2023-07-31T04:10:31;8.13;;;4.63;;
52776;SDS011;38656;54.260;20.822;2023-07-31T04:12:58;8.68;;;5.07;;
52776;SDS011;38656;54.260;20.822;2023-07-31T04:15:24;8.52;;;6.57;;
52776;SDS011;38656;54.260;20.822;2023-07-31T04:17:50;8.02;;;6.22;;
52776;SDS011;38656;54.260;20.822;2023-07-31T04:20:17;9.35;;;6.63;;
52776;SDS011;38656;54.260;20.822;2023-07-31T04:22:43;7.40;;;6.32;;
52776;SDS011;38656;54.260;20.822;2023-07-31T04:25:09;8.80;;;6.70;;
52776;SDS011;38656;54.260;20.822;2023-07-31T04:27:35;10.57;;;7.15;;
52776;SDS011;38656;54.260;20.822;2023-07-31T04:30:01;8.32;;;6.00;;
52776;SDS011;38656;54.260;20.822;2023-07-31T04:32:27;8.57;;;5.82;;
52776;SDS011;38656;54.260;20.822;2023-07-31T04:34:54;6.53;;;5.68;;
52776;SDS011;38656;54.260;20.822;2023-07-31T04:37:20;9.80;;;6.35;;
52776;SDS011;38656;54.260;20.822;2023-07-31T04:39:46;7.57;;;6.22;;
52776;SDS011;38656;54.260;20.822;2023-07-31T04:42:12;8.30;;;6.72;;
52776;SDS011;38656;54.260;20.822;2023-07-31T04:44:38;10.98;;;6.95;;
52776;SDS011;38656;54.260;20.822;2023-07-31T04:47:04;8.10;;;5.95;;
52776;SDS011;38656;54.260;20.822;2023-07-31T04:49:31;8.55;;;6.18;;
52776;SDS011;38656;54.260;20.822;2023-07-31T04:51:57;7.57;;;5.88;;
52776;SDS011;38656;54.260;20.822;2023-07-31T04:54:23;12.43;;;7.53;;
52776;SDS011;38656;54.260;20.822;2023-07-31T04:56:49;7.63;;;6.25;;
52776;SDS011;38656;54.260;20.822;2023-07-31T04:59:15;8.32;;;6.65;;
52776;SDS011;38656;54.260;20.822;2023-07-31T05:01:41;12.77;;;7.13;;
52776;SDS011;38656;54.260;20.822;2023-07-31T05:04:08;10.10;;;7.47;;
52776;SDS011;38656;54.260;20.822;2023-07-31T05:06:34;17.85;;;6.68;;
52776;SDS011;38656;54.260;20.822;2023-07-31T05:09:00;8.45;;;6.22;;
52776;SDS011;38656;54.260;20.822;2023-07-31T05:11:26;15.52;;;12.93;;
52776;SDS011;38656;54.260;20.822;2023-07-31T05:13:52;15.43;;;13.23;;
52776;SDS011;38656;54.260;20.822;2023-07-31T05:16:18;8.75;;;7.85;;
52776;SDS011;38656;54.260;20.822;2023-07-31T05:18:44;9.77;;;8.52;;
52776;SDS011;38656;54.260;20.822;2023-07-31T05:21:10;9.75;;;8.85;;
52776;SDS011;38656;54.260;20.822;2023-07-31T05:23:36;7.65;;;6.72;;
52776;SDS011;38656;54.260;20.822;2023-07-31T05:26:05;9.18;;;8.38;;
52776;SDS011;38656;54.260;20.822;2023-07-31T05:28:33;10.18;;;8.25;;
52776;SDS011;38656;54.260;20.822;2023-07-31T05:31:00;9.57;;;6.47;;
52776;SDS011;38656;54.260;20.822;2023-07-31T05:33:26;7.63;;;6.78;;
52776;SDS011;38656;54.260;20.822;2023-07-31T05:35:52;8.88;;;7.45;;
52776;SDS011;38656;54.260;20.822;2023-07-31T05:38:18;10.60;;;7.25;;
52776;SDS011;38656;54.260;20.822;2023-07-31T05:40:45;9.27;;;8.32;;
52776;SDS011;38656;54.260;20.822;2023-07-31T05:43:11;8.60;;;7.70;;
52776;SDS011;38656;54.260;20.822;2023-07-31T05:45:37;11.23;;;10.27;;
52776;SDS011;38656;54.260;20.822;2023-07-31T05:48:03;7.32;;;6.63;;
52776;SDS011;38656;54.260;20.822;2023-07-31T05:50:29;6.90;;;5.95;;
52776;SDS011;38656;54.260;20.822;2023-07-31T05:52:55;7.93;;;7.28;;
52776;SDS011;38656;54.260;20.822;2023-07-31T05:55:21;6.45;;;5.88;;
52776;SDS011;38656;54.260;20.822;2023-07-31T05:57:48;7.82;;;7.10;;
52776;SDS011;38656;54.260;20.822;2023-07-31T06:00:14;10.05;;;9.15;;
52776;SDS011;38656;54.260;20.822;2023-07-31T06:02:41;9.38;;;8.07;;
52776;SDS011;38656;54.260;20.822;2023-07-31T06:05:07;8.57;;;7.75;;
52776;SDS011;38656;54.260;20.822;2023-07-31T06:07:33;8.60;;;7.72;;
52776;SDS011;38656;54.260;20.822;2023-07-31T06:09:59;8.88;;;8.05;;
52776;SDS011;38656;54.260;20.822;2023-07-31T06:12:33;9.02;;;8.23;;
52776;SDS011;38656;54.260;20.822;2023-07-31T06:15:00;10.93;;;8.93;;
52776;SDS011;38656;54.260;20.822;2023-07-31T06:17:26;12.25;;;8.43;;
52776;SDS011;38656;54.260;20.822;2023-07-31T06:19:52;10.07;;;9.25;;
52776;SDS011;38656;54.260;20.822;2023-07-31T06:22:18;12.60;;;6.32;;
52776;SDS011;38656;54.260;20.822;2023-07-31T06:24:44;6.82;;;6.13;;
52776;SDS011;38656;54.260;20.822;2023-07-31T06:27:11;5.90;;;5.25;;
52776;SDS011;38656;54.260;20.822;2023-07-31T06:29:37;6.50;;;4.90;;
52776;SDS011;38656;54.260;20.822;2023-07-31T06:34:29;6.07;;;4.28;;
52776;SDS011;38656;54.260;20.822;2023-07-31T06:36:55;10.18;;;4.90;;
52776;SDS011;38656;54.260;20.822;2023-07-31T06:39:21;6.45;;;4.50;;
52776;SDS011;38656;54.260;20.822;2023-07-31T06:41:48;4.78;;;3.47;;
52776;SDS011;38656;54.260;20.822;2023-07-31T06:44:14;4.15;;;3.75;;
52776;SDS011;38656;54.260;20.822;2023-07-31T06:46:40;6.60;;;4.20;;
52776;SDS011;38656;54.260;20.822;2023-07-31T06:49:06;3.92;;;3.13;;
52776;SDS011;38656;54.260;20.822;2023-07-31T06:51:32;4.93;;;3.65;;
52776;SDS011;38656;54.260;20.822;2023-07-31T06:53:58;5.70;;;3.78;;
52776;SDS011;38656;54.260;20.822;2023-07-31T06:56:24;6.60;;;3.67;;
52776;SDS011;38656;54.260;20.822;2023-07-31T06:58:51;3.83;;;2.85;;
52776;SDS011;38656;54.260;20.822;2023-07-31T07:01:17;8.05;;;3.33;;
52776;SDS011;38656;54.260;20.822;2023-07-31T07:03:43;7.57;;;3.33;;
52776;SDS011;38656;54.260;20.822;2023-07-31T07:06:10;3.88;;;2.30;;
52776;SDS011;38656;54.260;20.822;2023-07-31T07:08:36;9.80;;;2.90;;
52776;SDS011;38656;54.260;20.822;2023-07-31T07:11:02;6.35;;;2.72;;
52776;SDS011;38656;54.260;20.822;2023-07-31T07:13:28;10.40;;;3.03;;
52776;SDS011;38656;54.260;20.822;2023-07-31T07:15:54;3.50;;;2.53;;
52776;SDS011;38656;54.260;20.822;2023-07-31T07:18:20;6.07;;;2.78;;
52776;SDS011;38656;54.260;20.822;2023-07-31T07:20:47;2.55;;;2.35;;
52776;SDS011;38656;54.260;20.822;2023-07-31T07:23:13;4.32;;;2.75;;
52776;SDS011;38656;54.260;20.822;2023-07-31T07:25:39;5.15;;;3.05;;
52776;SDS011;38656;54.260;20.822;2023-07-31T07:28:05;2.95;;;2.58;;
52776;SDS011;38656;54.260;20.822;2023-07-31T07:30:31;9.93;;;2.97;;
52776;SDS011;38656;54.260;20.822;2023-07-31T07:32:57;8.48;;;2.58;;
52776;SDS011;38656;54.260;20.822;2023-07-31T07:35:23;7.10;;;2.72;;
52776;SDS011;38656;54.260;20.822;2023-07-31T07:37:49;5.60;;;2.25;;
52776;SDS011;38656;54.260;20.822;2023-07-31T07:40:15;5.75;;;2.58;;
52776;SDS011;38656;54.260;20.822;2023-07-31T07:42:42;4.05;;;1.98;;
52776;SDS011;38656;54.260;20.822;2023-07-31T07:45:08;2.53;;;2.33;;
52776;SDS011;38656;54.260;20.822;2023-07-31T07:47:34;4.45;;;2.33;;
52776;SDS011;38656;54.260;20.822;2023-07-31T07:50:00;18.98;;;3.00;;
52776;SDS011;38656;54.260;20.822;2023-07-31T07:52:26;5.75;;;2.30;;
52776;SDS011;38656;54.260;20.822;2023-07-31T07:54:52;2.58;;;1.90;;
52776;SDS011;38656;54.260;20.822;2023-07-31T07:57:19;8.20;;;2.17;;
52776;SDS011;38656;54.260;20.822;2023-07-31T07:59:45;2.97;;;1.63;;
52776;SDS011;38656;54.260;20.822;2023-07-31T08:02:11;4.90;;;1.80;;
52776;SDS011;38656;54.260;20.822;2023-07-31T08:04:37;2.70;;;1.92;;
52776;SDS011;38656;54.260;20.822;2023-07-31T08:07:03;2.42;;;1.40;;
52776;SDS011;38656;54.260;20.822;2023-07-31T08:09:29;4.28;;;1.77;;
52776;SDS011;38656;54.260;20.822;2023-07-31T08:11:55;2.95;;;2.25;;
52776;SDS011;38656;54.260;20.822;2023-07-31T08:14:27;3.17;;;1.17;;
52776;SDS011;38656;54.260;20.822;2023-07-31T08:16:53;5.88;;;1.88;;
52776;SDS011;38656;54.260;20.822;2023-07-31T08:19:19;4.00;;;1.60;;
52776;SDS011;38656;54.260;20.822;2023-07-31T08:21:45;4.18;;;1.98;;
52776;SDS011;38656;54.260;20.822;2023-07-31T08:24:11;9.52;;;2.13;;
52776;SDS011;38656;54.260;20.822;2023-07-31T08:26:37;4.20;;;2.10;;
52776;SDS011;38656;54.260;20.822;2023-07-31T08:29:03;5.18;;;2.00;;
52776;SDS011;38656;54.260;20.822;2023-07-31T08:31:29;2.03;;;1.40;;
52776;SDS011;38656;54.260;20.822;2023-07-31T08:33:55;6.20;;;2.22;;
52776;SDS011;38656;54.260;20.822;2023-07-31T08:36:22;4.70;;;1.48;;
52776;SDS011;38656;54.260;20.822;2023-07-31T08:38:48;2.88;;;1.42;;
52776;SDS011;38656;54.260;20.822;2023-07-31T08:41:15;3.22;;;1.52;;
52776;SDS011;38656;54.260;20.822;2023-07-31T08:43:46;4.00;;;1.73;;
52776;SDS011;38656;54.260;20.822;2023-07-31T08:46:13;3.28;;;1.55;;
52776;SDS011;38656;54.260;20.822;2023-07-31T08:48:41;5.05;;;2.00;;
52776;SDS011;38656;54.260;20.822;2023-07-31T08:51:08;3.63;;;1.52;;
52776;SDS011;38656;54.260;20.822;2023-07-31T08:53:34;4.63;;;1.88;;
52776;SDS011;38656;54.260;20.822;2023-07-31T08:56:00;3.00;;;1.85;;
52776;SDS011;38656;54.260;20.822;2023-07-31T08:58:27;5.18;;;1.83;;
52776;SDS011;38656;54.260;20.822;2023-07-31T09:00:54;5.60;;;1.73;;
52776;SDS011;38656;54.260;20.822;2023-07-31T09:03:21;2.97;;;1.58;;
52776;SDS011;38656;54.260;20.822;2023-07-31T09:05:48;4.85;;;1.58;;
52776;SDS011;38656;54.260;20.822;2023-07-31T09:08:15;4.05;;;1.75;;
52776;SDS011;38656;54.260;20.822;2023-07-31T09:10:44;10.07;;;2.63;;
52776;SDS011;38656;54.260;20.822;2023-07-31T09:13:15;7.47;;;1.77;;
52776;SDS011;38656;54.260;20.822;2023-07-31T09:15:42;2.95;;;1.80;;
52776;SDS011;38656;54.260;20.822;2023-07-31T09:18:08;4.95;;;1.73;;
52776;SDS011;38656;54.260;20.822;2023-07-31T09:20:35;6.13;;;2.30;;
52776;SDS011;38656;54.260;20.822;2023-07-31T09:23:12;4.70;;;1.98;;
52776;SDS011;38656;54.260;20.822;2023-07-31T09:25:38;6.10;;;1.70;;
52776;SDS011;38656;54.260;20.822;2023-07-31T09:28:08;5.10;;;1.80;;
52776;SDS011;38656;54.260;20.822;2023-07-31T09:30:44;4.35;;;1.63;;
52776;SDS011;38656;54.260;20.822;2023-07-31T09:33:11;6.30;;;2.03;;
52776;SDS011;38656;54.260;20.822;2023-07-31T09:35:37;4.13;;;2.00;;
52776;SDS011;38656;54.260;20.822;2023-07-31T09:38:06;7.10;;;1.73;;
52776;SDS011;38656;54.260;20.822;2023-07-31T09:40:36;4.10;;;1.88;;
52776;SDS011;38656;54.260;20.822;2023-07-31T09:43:06;4.82;;;2.10;;
52776;SDS011;38656;54.260;20.822;2023-07-31T09:45:34;2.10;;;1.30;;
52776;SDS011;38656;54.260;20.822;2023-07-31T09:48:06;5.32;;;1.98;;
52776;SDS011;38656;54.260;20.822;2023-07-31T09:50:34;6.55;;;2.15;;
52776;SDS011;38656;54.260;20.822;2023-07-31T09:53:02;4.88;;;1.60;;
52776;SDS011;38656;54.260;20.822;2023-07-31T09:55:28;2.92;;;1.60;;
52776;SDS011;38656;54.260;20.822;2023-07-31T09:57:57;6.40;;;1.40;;
52776;SDS011;38656;54.260;20.822;2023-07-31T10:00:23;4.88;;;1.60;;
52776;SDS011;38656;54.260;20.822;2023-07-31T10:02:53;6.03;;;1.98;;
52776;SDS011;38656;54.260;20.822;2023-07-31T10:05:20;2.85;;;1.70;;
52776;SDS011;38656;54.260;20.822;2023-07-31T10:07:55;3.03;;;1.40;;
52776;SDS011;38656;54.260;20.822;2023-07-31T10:10:21;4.32;;;1.55;;
52776;SDS011;38656;54.260;20.822;2023-07-31T10:12:48;4.90;;;1.63;;
52776;SDS011;38656;54.260;20.822;2023-07-31T10:15:15;4.60;;;1.63;;
52776;SDS011;38656;54.260;20.822;2023-07-31T10:17:42;5.20;;;1.90;;
52776;SDS011;38656;54.260;20.822;2023-07-31T10:20:08;3.25;;;1.60;;
52776;SDS011;38656;54.260;20.822;2023-07-31T10:22:35;4.43;;;1.75;;
52776;SDS011;38656;54.260;20.822;2023-07-31T10:25:01;4.75;;;1.55;;
52776;SDS011;38656;54.260;20.822;2023-07-31T10:27:27;5.15;;;2.00;;
52776;SDS011;38656;54.260;20.822;2023-07-31T10:29:57;3.97;;;1.77;;
52776;SDS011;38656;54.260;20.822;2023-07-31T10:32:24;5.60;;;1.50;;
52776;SDS011;38656;54.260;20.822;2023-07-31T10:34:50;7.38;;;1.90;;
52776;SDS011;38656;54.260;20.822;2023-07-31T10:37:21;3.75;;;1.80;;
52776;SDS011;38656;54.260;20.822;2023-07-31T10:39:57;3.20;;;1.40;;
52776;SDS011;38656;54.260;20.822;2023-07-31T10:42:33;2.30;;;1.43;;
52776;SDS011;38656;54.260;20.822;2023-07-31T10:45:00;5.57;;;2.03;;
52776;SDS011;38656;54.260;20.822;2023-07-31T10:47:27;6.50;;;1.77;;
52776;SDS011;38656;54.260;20.822;2023-07-31T10:50:05;8.93;;;1.83;;
52776;SDS011;38656;54.260;20.822;2023-07-31T10:52:36;4.82;;;1.45;;
52776;SDS011;38656;54.260;20.822;2023-07-31T10:55:15;7.97;;;1.60;;
52776;SDS011;38656;54.260;20.822;2023-07-31T10:57:46;5.30;;;1.33;;
52776;SDS011;38656;54.260;20.822;2023-07-31T11:00:23;13.65;;;1.65;;
52776;SDS011;38656;54.260;20.822;2023-07-31T11:02:56;7.18;;;2.03;;
52776;SDS011;38656;54.260;20.822;2023-07-31T11:06:00;2.58;;;1.48;;
52776;SDS011;38656;54.260;20.822;2023-07-31T11:08:23;5.78;;;1.52;;
52776;SDS011;38656;54.260;20.822;2023-07-31T11:10:50;7.07;;;1.48;;
52776;SDS011;38656;54.260;20.822;2023-07-31T11:13:17;4.05;;;1.95;;
52776;SDS011;38656;54.260;20.822;2023-07-31T11:15:43;3.50;;;1.50;;
52776;SDS011;38656;54.260;20.822;2023-07-31T11:18:09;4.55;;;1.85;;
52776;SDS011;38656;54.260;20.822;2023-07-31T11:20:36;4.88;;;1.50;;
52776;SDS011;38656;54.260;20.822;2023-07-31T11:23:03;3.22;;;2.08;;
52776;SDS011;38656;54.260;20.822;2023-07-31T11:25:31;9.25;;;1.73;;
52776;SDS011;38656;54.260;20.822;2023-07-31T11:28:07;5.30;;;1.90;;
52776;SDS011;38656;54.260;20.822;2023-07-31T11:30:33;3.10;;;1.58;;
52776;SDS011;38656;54.260;20.822;2023-07-31T11:33:01;5.85;;;2.08;;
52776;SDS011;38656;54.260;20.822;2023-07-31T11:35:28;5.38;;;1.58;;
52776;SDS011;38656;54.260;20.822;2023-07-31T11:37:54;6.65;;;1.80;;
52776;SDS011;38656;54.260;20.822;2023-07-31T11:40:20;3.35;;;1.63;;
52776;SDS011;38656;54.260;20.822;2023-07-31T11:42:46;5.90;;;1.73;;
52776;SDS011;38656;54.260;20.822;2023-07-31T11:45:12;5.53;;;1.70;;
52776;SDS011;38656;54.260;20.822;2023-07-31T11:47:38;4.40;;;1.40;;
52776;SDS011;38656;54.260;20.822;2023-07-31T11:50:05;4.93;;;1.67;;
52776;SDS011;38656;54.260;20.822;2023-07-31T11:52:37;3.00;;;1.40;;
52776;SDS011;38656;54.260;20.822;2023-07-31T11:55:04;1.80;;;1.15;;
52776;SDS011;38656;54.260;20.822;2023-07-31T11:57:31;3.75;;;1.70;;
52776;SDS011;38656;54.260;20.822;2023-07-31T11:59:58;2.75;;;1.50;;
52776;SDS011;38656;54.260;20.822;2023-07-31T12:02:24;2.38;;;1.50;;
52776;SDS011;38656;54.260;20.822;2023-07-31T12:04:50;1.55;;;1.08;;
52776;SDS011;38656;54.260;20.822;2023-07-31T12:07:17;3.85;;;1.55;;
52776;SDS011;38656;54.260;20.822;2023-07-31T12:09:52;2.75;;;1.40;;
52776;SDS011;38656;54.260;20.822;2023-07-31T12:12:22;5.32;;;1.73;;
52776;SDS011;38656;54.260;20.822;2023-07-31T12:14:49;6.07;;;1.75;;
52776;SDS011;38656;54.260;20.822;2023-07-31T12:17:16;5.40;;;2.33;;
52776;SDS011;38656;54.260;20.822;2023-07-31T12:19:42;6.05;;;1.70;;
52776;SDS011;38656;54.260;20.822;2023-07-31T12:22:12;3.95;;;1.65;;
52776;SDS011;38656;54.260;20.822;2023-07-31T12:24:39;4.53;;;1.40;;
52776;SDS011;38656;54.260;20.822;2023-07-31T12:27:09;2.58;;;1.75;;
52776;SDS011;38656;54.260;20.822;2023-07-31T12:29:36;3.78;;;2.30;;
52776;SDS011;38656;54.260;20.822;2023-07-31T12:32:02;8.18;;;1.95;;
52776;SDS011;38656;54.260;20.822;2023-07-31T12:34:28;3.65;;;1.58;;
52776;SDS011;38656;54.260;20.822;2023-07-31T12:36:54;8.13;;;1.90;;
52776;SDS011;38656;54.260;20.822;2023-07-31T12:39:20;3.28;;;1.50;;
52776;SDS011;38656;54.260;20.822;2023-07-31T12:41:46;3.08;;;1.55;;
52776;SDS011;38656;54.260;20.822;2023-07-31T12:44:12;3.15;;;1.30;;
52776;SDS011;38656;54.260;20.822;2023-07-31T12:46:38;5.22;;;1.75;;
52776;SDS011;38656;54.260;20.822;2023-07-31T12:49:04;4.35;;;2.55;;
52776;SDS011;38656;54.260;20.822;2023-07-31T12:51:30;11.88;;;8.30;;
52776;SDS011;38656;54.260;20.822;2023-07-31T12:53:56;5.30;;;3.08;;
52776;SDS011;38656;54.260;20.822;2023-07-31T12:56:22;1.85;;;1.13;;
52776;SDS011;38656;54.260;20.822;2023-07-31T12:58:49;4.25;;;2.35;;
52776;SDS011;38656;54.260;20.822;2023-07-31T13:01:15;5.57;;;2.30;;
52776;SDS011;38656;54.260;20.822;2023-07-31T13:03:41;6.20;;;1.25;;
52776;SDS011;38656;54.260;20.822;2023-07-31T13:06:07;6.47;;;4.75;;
52776;SDS011;38656;54.260;20.822;2023-07-31T13:08:33;14.05;;;8.90;;
52776;SDS011;38656;54.260;20.822;2023-07-31T13:10:59;3.60;;;1.67;;
52776;SDS011;38656;54.260;20.822;2023-07-31T13:13:25;6.05;;;1.55;;
52776;SDS011;38656;54.260;20.822;2023-07-31T13:15:51;3.55;;;1.30;;
52776;SDS011;38656;54.260;20.822;2023-07-31T13:18:17;6.03;;;1.35;;
52776;SDS011;38656;54.260;20.822;2023-07-31T13:20:43;6.22;;;1.85;;
52776;SDS011;38656;54.260;20.822;2023-07-31T13:23:09;2.72;;;1.27;;
52776;SDS011;38656;54.260;20.822;2023-07-31T13:25:35;3.28;;;1.88;;
52776;SDS011;38656;54.260;20.822;2023-07-31T13:28:01;5.80;;;1.77;;
52776;SDS011;38656;54.260;20.822;2023-07-31T13:30:27;7.50;;;3.33;;
52776;SDS011;38656;54.260;20.822;2023-07-31T13:32:53;3.65;;;1.92;;
52776;SDS011;38656;54.260;20.822;2023-07-31T13:35:19;3.63;;;2.00;;
52776;SDS011;38656;54.260;20.822;2023-07-31T13:37:45;3.28;;;2.05;;
52776;SDS011;38656;54.260;20.822;2023-07-31T13:40:11;5.40;;;3.03;;
52776;SDS011;38656;54.260;20.822;2023-07-31T13:42:37;3.55;;;1.60;;
52776;SDS011;38656;54.260;20.822;2023-07-31T13:45:03;5.00;;;2.50;;
52776;SDS011;38656;54.260;20.822;2023-07-31T13:47:30;6.18;;;1.55;;
52776;SDS011;38656;54.260;20.822;2023-07-31T13:49:57;2.83;;;1.50;;
52776;SDS011;38656;54.260;20.822;2023-07-31T13:52:23;5.82;;;2.40;;
52776;SDS011;38656;54.260;20.822;2023-07-31T13:54:49;6.05;;;2.35;;
52776;SDS011;38656;54.260;20.822;2023-07-31T13:57:15;4.10;;;1.98;;
52776;SDS011;38656;54.260;20.822;2023-07-31T13:59:42;3.20;;;1.90;;
52776;SDS011;38656;54.260;20.822;2023-07-31T14:02:08;3.53;;;1.60;;
52776;SDS011;38656;54.260;20.822;2023-07-31T14:04:34;4.45;;;1.65;;
52776;SDS011;38656;54.260;20.822;2023-07-31T14:07:00;4.50;;;2.72;;
52776;SDS011;38656;54.260;20.822;2023-07-31T14:09:26;5.35;;;2.45;;
52776;SDS011;38656;54.260;20.822;2023-07-31T14:11:53;4.38;;;1.70;;
52776;SDS011;38656;54.260;20.822;2023-07-31T14:14:19;6.03;;;2.33;;
52776;SDS011;38656;54.260;20.822;2023-07-31T14:16:45;4.68;;;2.00;;
52776;SDS011;38656;54.260;20.822;2023-07-31T14:19:11;6.88;;;1.77;;
52776;SDS011;38656;54.260;20.822;2023-07-31T14:21:37;3.15;;;1.52;;
52776;SDS011;38656;54.260;20.822;2023-07-31T14:24:03;3.13;;;1.63;;
52776;SDS011;38656;54.260;20.822;2023-07-31T14:26:30;2.72;;;1.58;;
52776;SDS011;38656;54.260;20.822;2023-07-31T14:28:56;3.05;;;1.60;;
52776;SDS011;38656;54.260;20.822;2023-07-31T14:31:22;4.25;;;1.38;;
52776;SDS011;38656;54.260;20.822;2023-07-31T14:33:48;4.07;;;1.77;;
52776;SDS011;38656;54.260;20.822;2023-07-31T14:36:14;2.70;;;1.88;;
52776;SDS011;38656;54.260;20.822;2023-07-31T14:38:40;5.72;;;1.83;;
52776;SDS011;38656;54.260;20.822;2023-07-31T14:41:06;4.53;;;1.77;;